Date,TemperatureHighF,TemperatureAvgF,TemperatureLowF,DewpointHighF,DewpointAvgF,DewpointLowF,HumidityHigh,HumidityAvg,HumidityLow,PressureMaxIn,PressureMinIn,WindSpeedMaxMPH,WindSpeedAvgMPH,GustSpeedMaxMPH,PrecipitationSumIn
2013-2-1,32,28,24,20,13,8,72,52,39,30.27,29.84,13,3,16,0.00
2013-2-2,31,25,18,22,11,7,90,57,38,30.34,30.07,11,2,11,0.00
2013-2-3,31,26,22,25,22,20,94,84,69,30.07,29.82,5,1,6,0.00
2013-2-4,30,26,22,25,15,12,91,62,46,30.02,29.84,10,3,13,0.00
2013-2-5,33,30,27,31,28,23,94,92,87,29.98,29.90,5,0,6,0.00
2013-2-6,40,34,29,32,25,14,95,72,50,30.38,29.93,11,2,12,0.01
2013-2-7,37,30,25,33,18,11,86,61,51,30.51,30.31,9,1,9,0.00
2013-2-8,40,36,30,39,34,28,96,93,85,30.31,29.63,17,5,23,0.71
2013-2-9,34,28,22,30,20,9,96,72,43,30.36,29.76,14,5,17,0.07
2013-2-10,39,26,16,24,14,9,80,62,29,30.51,30.34,7,1,8,0.12
2013-2-11,52,42,30,50,40,24,96,93,79,30.36,29.67,13,1,13,0.36
2013-2-12,46,41,32,42,29,26,96,65,50,29.99,29.76,12,3,14,0.01
2013-2-13,44,36,28,32,28,24,95,75,57,29.98,29.70,8,1,8,0.00
2013-2-14,47,37,32,35,33,29,96,85,51,30.04,29.72,7,1,7,0.10
2013-2-15,57,43,32,40,35,30,95,75,44,30.05,29.93,10,1,11,0.01
2013-2-16,43,36,31,35,29,18,93,76,56,29.97,29.74,12,3,14,0.00
2013-2-17,32,28,20,18,9,2,57,44,34,30.05,29.69,22,6,22,0.00
2013-2-18,36,26,18,16,8,2,56,47,35,30.29,30.05,14,3,16,0.00
2013-2-19,52,40,29,45,32,15,95,75,48,30.23,29.70,14,2,18,0.23
2013-2-20,38,31,26,29,16,12,73,55,45,30.03,29.76,19,5,19,0.00
2013-2-21,36,29,24,18,15,12,66,57,46,30.30,30.01,16,5,18,0.00
2013-2-22,36,31,23,33,24,15,91,77,66,30.41,30.27,8,1,8,0.00
2013-2-23,46,41,35,45,39,33,96,95,91,30.28,29.80,13,3,15,0.37
2013-2-24,48,39,32,40,33,23,96,79,55,30.01,29.75,14,4,17,0.01
2013-2-25,44,37,30,30,27,23,80,67,54,30.25,30.01,9,1,9,0.00
2013-2-26,45,37,28,38,32,25,95,82,66,30.29,29.83,19,5,21,0.23
2013-2-27,51,46,39,50,42,38,96,89,72,29.85,29.50,21,4,22,0.96
2013-2-28,49,43,37,40,35,30,89,74,57,29.65,29.57,7,1,9,0.00